Time;durP1;ratioP1;P1;durP2;ratioP2;P2;SDS_P1;SDS_P2;PMS_P1;PMS_P2;Temp;Humidity;BMP_temperature;BMP_pressure;BME280_temperature;BME280_humidity;BME280_pressure;Samples;Min_cycle;Max_cycle;Signal;HPM_P1;HPM_P2
2021/06/20 00:00:46;;;;;;;34.93;9.27;;;25.30;99.90;;;;;;479885;247;28788;-73
2021/06/20 00:07:27;;;;;;;41.63;8.60;;;25.10;99.90;;;;;;477842;242;28816;-71
2021/06/20 00:09:28;;;;;;;22.87;7.93;;;25.00;99.90;;;;;;489439;242;28945;-72
2021/06/20 00:11:30;;;;;;;24.73;8.67;;;25.00;99.90;;;;;;489369;242;28934;-72
2021/06/20 00:13:31;;;;;;;17.47;7.60;;;24.90;99.90;;;;;;484938;233;29607;-72
2021/06/20 00:15:32;;;;;;;29.40;8.60;;;24.80;99.90;;;;;;489022;242;29288;-72
2021/06/20 00:17:33;;;;;;;28.03;7.80;;;24.70;99.90;;;;;;490284;241;29222;-70
2021/06/20 00:19:35;;;;;;;25.63;8.30;;;24.60;99.90;;;;;;490319;241;28774;-72
2021/06/20 00:21:36;;;;;;;20.53;8.23;;;24.60;99.90;;;;;;490359;241;28847;-71
2021/06/20 00:23:37;;;;;;;22.67;8.70;;;24.50;99.90;;;;;;490319;241;28845;-71
2021/06/20 00:25:38;;;;;;;16.47;7.43;;;24.40;99.90;;;;;;490310;241;28785;-72
2021/06/20 00:27:40;;;;;;;25.20;9.40;;;24.40;99.90;;;;;;490317;241;28896;-71
2021/06/20 00:29:41;;;;;;;30.40;8.90;;;24.30;99.90;;;;;;490315;241;28803;-72
2021/06/20 00:31:42;;;;;;;22.43;8.80;;;24.20;99.90;;;;;;490358;241;29263;-71
2021/06/20 00:33:43;;;;;;;24.30;9.17;;;24.00;99.90;;;;;;485688;237;29260;-70
2021/06/20 00:35:45;;;;;;;19.23;8.60;;;24.00;99.90;;;;;;477313;245;29000;-73
2021/06/20 00:40:02;;;;;;;17.40;7.43;;;24.00;99.90;;;;;;484903;244;28738;-74
2021/06/20 00:42:04;;;;;;;12.60;7.33;;;24.00;99.90;;;;;;486250;243;28713;-72
2021/06/20 00:44:05;;;;;;;11.00;7.03;;;24.00;99.90;;;;;;484040;235;29007;-71
2021/06/20 00:48:23;;;;;;;23.33;7.83;;;23.80;99.90;;;;;;494101;240;28750;-73
2021/06/20 00:50:24;;;;;;;23.23;7.40;;;23.70;99.90;;;;;;494109;240;28814;-71
2021/06/20 00:52:25;;;;;;;13.57;6.60;;;23.60;99.90;;;;;;476709;248;28844;-72
2021/06/20 00:54:26;;;;;;;14.20;6.20;;;23.60;99.90;;;;;;486365;239;28791;-71
2021/06/20 00:56:28;;;;;;;17.33;6.93;;;23.60;99.90;;;;;;481906;245;28743;-71
2021/06/20 00:58:29;;;;;;;11.13;6.33;;;23.50;99.90;;;;;;481957;246;29273;-71
2021/06/20 01:00:31;;;;;;;12.50;6.17;;;23.60;99.90;;;;;;475276;250;29396;-71
2021/06/20 01:02:31;;;;;;;11.97;5.77;;;23.50;99.90;;;;;;477530;247;29291;-71
2021/06/20 01:04:33;;;;;;;15.70;6.20;;;23.50;99.90;;;;;;477544;248;28782;-71
2021/06/20 01:06:34;;;;;;;15.90;6.33;;;23.50;99.90;;;;;;477656;249;28848;-71
2021/06/20 01:08:35;;;;;;;10.13;5.20;;;23.40;99.90;;;;;;477584;249;28818;-71
2021/06/20 01:10:36;;;;;;;13.20;5.83;;;23.20;99.90;;;;;;477626;249;28788;-73
2021/06/20 01:12:38;;;;;;;12.33;5.83;;;23.20;99.90;;;;;;477559;249;28918;-71
2021/06/20 01:14:39;;;;;;;11.30;5.50;;;23.30;99.90;;;;;;477625;249;28798;-71
2021/06/20 01:16:40;;;;;;;10.10;4.90;;;23.20;99.90;;;;;;477582;249;29238;-72
2021/06/20 01:18:41;;;;;;;7.40;3.90;;;23.10;99.90;;;;;;477606;249;29262;-73
2021/06/20 01:20:43;;;;;;;12.70;5.43;;;23.10;99.90;;;;;;477565;249;29331;-72
2021/06/20 01:22:44;;;;;;;9.50;4.93;;;23.10;99.90;;;;;;477612;249;28806;-72
2021/06/20 01:24:45;;;;;;;5.63;3.93;;;23.00;99.90;;;;;;477604;249;28863;-70
2021/06/20 01:26:46;;;;;;;8.83;4.40;;;23.00;99.90;;;;;;477587;249;28785;-71
2021/06/20 01:28:52;;;;;;;9.90;4.77;;;23.10;99.90;;;;;;477610;249;28912;-70
2021/06/20 01:30:55;;;;;;;8.70;4.83;;;23.00;99.90;;;;;;477090;248;28755;-72
2021/06/20 01:32:50;;;;;;;8.97;4.60;;;23.00;99.90;;;;;;477122;249;28945;-72
2021/06/20 01:34:51;;;;;;;5.27;4.10;;;23.00;99.90;;;;;;477564;249;29240;-72
2021/06/20 01:36:53;;;;;;;5.60;3.83;;;22.90;99.90;;;;;;477626;249;28847;-72
2021/06/20 01:38:54;;;;;;;7.80;4.00;;;22.80;99.90;;;;;;477585;249;28856;-71
2021/06/20 01:40:55;;;;;;;6.40;4.07;;;22.80;99.90;;;;;;477607;249;29213;-71
2021/06/20 01:42:57;;;;;;;10.07;3.80;;;22.80;99.90;;;;;;478366;240;29383;-72
2021/06/20 01:44:58;;;;;;;9.63;4.80;;;22.70;99.90;;;;;;476433;245;29439;-72
2021/06/20 01:46:59;;;;;;;7.73;4.00;;;22.60;99.90;;;;;;478823;248;28728;-72
2021/06/20 01:49:00;;;;;;;7.50;3.90;;;22.50;99.90;;;;;;478803;246;28754;-72
2021/06/20 01:51:01;;;;;;;11.10;4.33;;;22.40;99.90;;;;;;478819;246;28798;-71
2021/06/20 01:53:03;;;;;;;8.47;4.37;;;22.40;99.90;;;;;;478772;246;28761;-72
2021/06/20 01:55:04;;;;;;;12.20;4.50;;;22.40;99.90;;;;;;478811;244;29172;-71
2021/06/20 01:57:05;;;;;;;11.30;3.50;;;22.20;99.90;;;;;;478724;248;28778;-71
2021/06/20 01:59:06;;;;;;;6.50;3.67;;;22.20;99.90;;;;;;478872;244;28844;-71
2021/06/20 02:01:08;;;;;;;7.70;3.80;;;22.10;99.90;;;;;;478486;243;29355;-72
2021/06/20 02:05:14;;;;;;;7.27;4.10;;;22.10;99.90;;;;;;490857;242;28819;-74
2021/06/20 02:07:16;;;;;;;6.17;3.20;;;22.10;99.90;;;;;;489793;238;28782;-72
2021/06/20 02:09:17;;;;;;;6.30;3.70;;;22.10;99.90;;;;;;483717;244;28836;-71
2021/06/20 02:11:18;;;;;;;6.77;3.43;;;22.00;99.90;;;;;;483830;244;28793;-71
2021/06/20 02:13:22;;;;;;;5.20;3.23;;;22.00;99.90;;;;;;483839;244;28761;-72
2021/06/20 02:15:22;;;;;;;10.33;3.80;;;22.00;99.90;;;;;;483661;245;28820;-71
2021/06/20 02:17:22;;;;;;;11.47;4.27;;;21.90;99.90;;;;;;483764;245;28735;-70
2021/06/20 02:19:23;;;;;;;8.23;4.33;;;21.90;99.90;;;;;;483832;244;29255;-70
2021/06/20 02:21:24;;;;;;;10.67;3.67;;;21.80;99.90;;;;;;483865;244;30325;-72
2021/06/20 02:23:26;;;;;;;4.67;3.50;;;21.70;99.90;;;;;;483850;244;29252;-72
2021/06/20 02:25:27;;;;;;;6.10;3.37;;;21.70;99.90;;;;;;483908;244;28822;-70
2021/06/20 02:27:28;;;;;;;9.40;4.17;;;21.60;99.90;;;;;;483913;244;28710;-72
2021/06/20 02:29:29;;;;;;;10.77;4.20;;;21.70;99.90;;;;;;483853;244;28822;-71
2021/06/20 02:31:31;;;;;;;6.20;3.80;;;21.60;99.90;;;;;;483862;244;28773;-71
2021/06/20 02:33:32;;;;;;;14.03;4.50;;;21.60;99.90;;;;;;483851;244;28809;-72
2021/06/20 02:35:33;;;;;;;8.43;4.10;;;21.50;99.90;;;;;;483923;244;29158;-72
2021/06/20 02:37:34;;;;;;;11.00;4.07;;;21.60;99.90;;;;;;483817;244;28724;-71
2021/06/20 02:39:36;;;;;;;6.13;3.50;;;21.50;99.90;;;;;;483885;244;28762;-71
2021/06/20 02:41:37;;;;;;;7.13;3.70;;;21.50;99.90;;;;;;483873;244;29202;-71
2021/06/20 02:43:38;;;;;;;6.97;3.90;;;21.50;99.90;;;;;;483884;244;29185;-72
2021/06/20 02:45:39;;;;;;;14.87;4.03;;;21.30;99.90;;;;;;483855;244;29253;-70
2021/06/20 02:47:41;;;;;;;7.43;3.97;;;21.30;99.90;;;;;;483990;243;28703;-72
2021/06/20 02:49:42;;;;;;;9.60;4.13;;;21.20;99.90;;;;;;485833;241;28800;-71
2021/06/20 02:51:44;;;;;;;7.53;4.30;;;21.30;99.90;;;;;;487239;244;28896;-72
2021/06/20 02:53:44;;;;;;;6.60;4.10;;;21.30;99.90;;;;;;488001;243;28880;-71
2021/06/20 02:55:46;;;;;;;8.90;4.30;;;21.30;99.90;;;;;;488071;243;28921;-71
2021/06/20 02:57:47;;;;;;;7.90;4.07;;;21.30;99.90;;;;;;488008;244;28818;-71
2021/06/20 02:59:48;;;;;;;11.70;4.10;;;21.20;99.90;;;;;;488015;244;28813;-72
2021/06/20 03:01:49;;;;;;;5.60;3.30;;;21.20;99.90;;;;;;488053;243;28801;-70
2021/06/20 03:03:51;;;;;;;6.70;4.30;;;21.20;99.90;;;;;;487988;244;29280;-71
2021/06/20 03:05:52;;;;;;;5.53;3.90;;;21.20;99.90;;;;;;488014;244;29295;-71
2021/06/20 03:07:53;;;;;;;9.57;4.30;;;21.20;99.90;;;;;;488041;244;29267;-71
2021/06/20 03:09:54;;;;;;;4.53;3.40;;;21.10;99.90;;;;;;488018;243;29367;-71
2021/06/20 03:11:56;;;;;;;9.23;4.53;;;21.00;99.90;;;;;;488069;243;28932;-71
2021/06/20 03:13:57;;;;;;;8.03;4.40;;;21.10;99.90;;;;;;488017;243;28890;-71
2021/06/20 03:15:58;;;;;;;6.90;4.10;;;21.00;99.90;;;;;;488025;244;28861;-71
2021/06/20 03:17:59;;;;;;;8.47;4.13;;;21.00;99.90;;;;;;487988;244;28842;-71
2021/06/20 03:20:01;;;;;;;9.93;4.37;;;21.00;99.90;;;;;;488030;243;28831;-70
2021/06/20 03:22:02;;;;;;;9.03;4.50;;;21.00;99.90;;;;;;488037;243;28957;-72
2021/06/20 03:24:03;;;;;;;6.67;3.70;;;21.00;99.90;;;;;;488029;244;28857;-71
2021/06/20 03:26:04;;;;;;;11.63;4.00;;;20.90;99.90;;;;;;487983;243;28789;-71
2021/06/20 03:28:06;;;;;;;12.80;4.50;;;20.90;99.90;;;;;;488003;243;29367;-71
2021/06/20 03:30:07;;;;;;;6.93;3.90;;;20.90;99.90;;;;;;487994;243;29346;-71
2021/06/20 03:32:08;;;;;;;10.40;4.00;;;20.90;99.90;;;;;;487959;244;29381;-70
2021/06/20 03:34:09;;;;;;;15.83;4.30;;;20.90;99.90;;;;;;487949;243;28904;-71
2021/06/20 03:36:11;;;;;;;5.03;3.30;;;21.00;99.90;;;;;;487960;243;28824;-71
2021/06/20 03:38:12;;;;;;;13.20;4.70;;;21.00;99.90;;;;;;487946;243;28827;-71
2021/06/20 03:40:13;;;;;;;4.90;4.10;;;21.00;99.90;;;;;;487995;244;28835;-71
2021/06/20 03:42:16;;;;;;;7.73;3.90;;;21.00;99.90;;;;;;487989;243;28820;-72
2021/06/20 03:44:16;;;;;;;8.70;3.90;;;20.90;99.90;;;;;;487898;243;28884;-72
2021/06/20 03:46:18;;;;;;;9.73;4.07;;;20.80;99.90;;;;;;487938;244;28825;-72
2021/06/20 03:48:18;;;;;;;7.63;3.73;;;20.80;99.90;;;;;;487949;243;28936;-71
2021/06/20 03:50:20;;;;;;;7.63;4.10;;;20.80;99.90;;;;;;487975;243;29241;-72
2021/06/20 03:52:21;;;;;;;9.27;4.10;;;20.80;99.90;;;;;;487992;243;29331;-71
2021/06/20 03:54:24;;;;;;;4.10;3.30;;;20.80;99.90;;;;;;488007;243;29248;-72
2021/06/20 03:56:23;;;;;;;7.83;3.60;;;20.80;99.90;;;;;;487794;243;28835;-72
2021/06/20 03:58:24;;;;;;;5.90;3.57;;;20.90;99.90;;;;;;487988;243;28828;-72
2021/06/20 04:00:26;;;;;;;8.60;3.90;;;20.80;99.90;;;;;;487971;243;28787;-72
2021/06/20 04:02:27;;;;;;;7.60;3.30;;;20.90;99.90;;;;;;487975;243;28892;-72
2021/06/20 04:04:28;;;;;;;8.07;4.00;;;20.80;99.90;;;;;;487981;244;28891;-71
2021/06/20 04:06:29;;;;;;;5.73;3.00;;;20.80;99.90;;;;;;485074;244;28755;-71
2021/06/20 04:08:31;;;;;;;7.57;3.60;;;20.90;99.90;;;;;;483819;244;28765;-72
2021/06/20 04:10:32;;;;;;;5.47;3.20;;;20.90;99.90;;;;;;483799;244;28727;-72
2021/06/20 04:12:33;;;;;;;8.10;3.67;;;20.80;99.90;;;;;;483796;244;28765;-71
2021/06/20 04:14:34;;;;;;;7.87;3.43;;;20.70;99.90;;;;;;483798;244;29390;-73
2021/06/20 04:16:36;;;;;;;4.90;2.87;;;20.60;99.90;;;;;;483805;245;29194;-71
2021/06/20 04:18:37;;;;;;;5.23;3.33;;;20.70;99.90;;;;;;483835;244;29289;-72
2021/06/20 04:20:38;;;;;;;4.50;2.87;;;20.60;99.90;;;;;;483810;245;28741;-72
2021/06/20 04:22:39;;;;;;;5.37;3.03;;;20.60;99.90;;;;;;483817;244;28824;-71
2021/06/20 04:24:41;;;;;;;5.37;2.90;;;20.60;99.90;;;;;;483774;244;28862;-72
2021/06/20 04:26:42;;;;;;;4.83;3.23;;;20.60;99.90;;;;;;483851;244;28722;-71
2021/06/20 04:28:43;;;;;;;5.10;3.27;;;20.70;99.90;;;;;;483771;244;28762;-72
2021/06/20 04:30:44;;;;;;;5.07;2.57;;;20.70;99.90;;;;;;483818;245;28741;-72
2021/06/20 04:32:46;;;;;;;7.60;3.10;;;20.70;99.90;;;;;;483784;244;28789;-72
2021/06/20 04:34:47;;;;;;;4.03;2.80;;;20.60;99.90;;;;;;483786;244;28841;-72
2021/06/20 04:36:48;;;;;;;9.37;3.50;;;20.60;99.90;;;;;;483788;244;28816;-72
2021/06/20 04:38:49;;;;;;;6.97;3.07;;;20.50;99.90;;;;;;483780;244;29267;-72
2021/06/20 04:40:57;;;;;;;4.83;3.20;;;20.50;99.90;;;;;;483824;244;29379;-72
2021/06/20 04:42:57;;;;;;;6.20;2.90;;;20.40;99.90;;;;;;483440;246;29255;-72
2021/06/20 04:44:56;;;;;;;5.60;3.20;;;20.50;99.90;;;;;;483657;245;28853;-72
2021/06/20 04:46:57;;;;;;;11.63;3.90;;;20.50;99.90;;;;;;483808;244;28804;-72
2021/06/20 04:48:58;;;;;;;6.67;3.17;;;20.40;99.90;;;;;;483807;244;28782;-71
2021/06/20 04:51:00;;;;;;;4.10;2.80;;;20.50;99.90;;;;;;483779;244;28765;-73
2021/06/20 04:53:01;;;;;;;7.77;2.97;;;20.50;99.90;;;;;;483840;244;28812;-71
2021/06/20 04:55:02;;;;;;;5.50;3.03;;;20.60;99.90;;;;;;483761;244;28766;-72
2021/06/20 04:57:04;;;;;;;6.10;3.30;;;20.60;99.90;;;;;;483829;244;28836;-71
2021/06/20 04:59:05;;;;;;;5.10;3.00;;;20.60;99.90;;;;;;483694;244;28721;-71
2021/06/20 05:01:06;;;;;;;5.10;2.80;;;20.70;99.90;;;;;;484978;244;28722;-72
2021/06/20 05:03:07;;;;;;;4.33;3.33;;;20.60;99.90;;;;;;485592;244;29231;-72
2021/06/20 05:05:08;;;;;;;5.40;3.00;;;20.60;99.90;;;;;;485200;244;29209;-71
2021/06/20 05:07:10;;;;;;;6.87;3.20;;;20.60;99.90;;;;;;487770;243;29484;-72
2021/06/20 05:09:11;;;;;;;5.67;2.80;;;20.60;99.90;;;;;;488081;241;28828;-72
2021/06/20 05:11:12;;;;;;;4.47;3.13;;;20.70;99.90;;;;;;488101;241;28923;-72
2021/06/20 05:13:13;;;;;;;5.00;3.40;;;20.70;99.90;;;;;;488049;241;28870;-72
2021/06/20 05:15:15;;;;;;;7.13;3.20;;;20.80;99.90;;;;;;488027;241;28855;-69
2021/06/20 05:17:16;;;;;;;5.40;2.70;;;20.80;99.90;;;;;;488066;241;28841;-70
2021/06/20 05:19:17;;;;;;;9.10;3.77;;;20.80;99.90;;;;;;488068;241;28820;-70
2021/06/20 05:21:18;;;;;;;6.40;3.13;;;20.70;99.90;;;;;;488060;241;28858;-72
2021/06/20 05:23:20;;;;;;;7.87;2.93;;;20.70;99.90;;;;;;488076;241;28827;-72
2021/06/20 05:25:21;;;;;;;5.70;2.90;;;20.70;99.90;;;;;;488024;241;28841;-72
2021/06/20 05:27:22;;;;;;;7.23;2.80;;;20.70;99.90;;;;;;488103;241;29478;-72
2021/06/20 05:29:23;;;;;;;3.53;3.13;;;20.80;99.90;;;;;;488056;241;29303;-69
2021/06/20 05:31:25;;;;;;;4.03;2.70;;;20.90;99.90;;;;;;488081;241;29370;-72
2021/06/20 05:33:26;;;;;;;4.17;3.13;;;21.00;99.90;;;;;;488083;241;28819;-72
2021/06/20 05:35:27;;;;;;;5.97;2.80;;;20.90;99.90;;;;;;488080;241;28913;-70
2021/06/20 05:37:28;;;;;;;5.30;3.20;;;21.00;99.90;;;;;;488038;241;28850;-70
2021/06/20 05:39:30;;;;;;;5.67;3.03;;;21.00;99.90;;;;;;488064;241;28931;-70
2021/06/20 05:41:31;;;;;;;4.43;2.70;;;21.00;99.90;;;;;;488094;241;28856;-73
2021/06/20 05:43:32;;;;;;;7.43;3.00;;;20.90;99.90;;;;;;488067;241;28811;-70
2021/06/20 05:45:33;;;;;;;5.87;3.07;;;21.00;99.90;;;;;;488061;241;28870;-71
2021/06/20 05:47:35;;;;;;;5.33;2.70;;;21.20;99.90;;;;;;488086;241;28807;-70
2021/06/20 05:49:36;;;;;;;6.47;3.17;;;21.20;99.90;;;;;;488088;241;28933;-73
2021/06/20 05:51:37;;;;;;;5.03;3.03;;;21.20;99.90;;;;;;488075;241;29298;-71
2021/06/20 05:53:38;;;;;;;5.23;2.77;;;21.30;99.90;;;;;;488072;241;29389;-71
2021/06/20 05:55:40;;;;;;;6.40;3.27;;;21.30;99.90;;;;;;488064;241;29320;-71
2021/06/20 05:57:41;;;;;;;4.80;3.33;;;21.20;99.90;;;;;;488058;241;29437;-72
2021/06/20 05:59:42;;;;;;;7.50;3.03;;;21.30;99.90;;;;;;488098;241;28902;-70
2021/06/20 06:01:44;;;;;;;5.40;3.07;;;21.40;99.90;;;;;;488083;241;28987;-73
2021/06/20 06:03:45;;;;;;;6.27;2.70;;;21.50;99.90;;;;;;488037;241;28806;-72
2021/06/20 06:05:46;;;;;;;4.20;2.90;;;21.40;99.90;;;;;;488026;241;28843;-72
2021/06/20 06:07:47;;;;;;;4.73;3.20;;;21.50;99.90;;;;;;488023;241;29192;-73
2021/06/20 06:09:48;;;;;;;3.40;2.70;;;21.40;99.90;;;;;;488072;241;28838;-71
2021/06/20 06:11:50;;;;;;;4.67;2.70;;;21.60;99.90;;;;;;488051;241;28926;-73
2021/06/20 06:13:51;;;;;;;7.30;3.10;;;21.70;99.90;;;;;;488019;241;28799;-71
2021/06/20 06:15:52;;;;;;;8.10;3.00;;;21.60;99.90;;;;;;488022;238;29372;-72
2021/06/20 06:17:53;;;;;;;7.63;2.60;;;21.70;99.90;;;;;;488027;241;29438;-74
2021/06/20 06:19:55;;;;;;;7.80;3.10;;;21.60;99.90;;;;;;488058;241;29313;-72
2021/06/20 06:21:56;;;;;;;5.90;2.60;;;21.70;99.90;;;;;;488064;241;29411;-72
2021/06/20 06:23:57;;;;;;;4.50;3.03;;;21.60;99.90;;;;;;488065;241;28796;-71
2021/06/20 06:25:58;;;;;;;6.83;3.10;;;21.80;99.90;;;;;;488040;241;28904;-71
2021/06/20 06:28:01;;;;;;;3.87;3.10;;;21.80;99.90;;;;;;488059;241;28946;-72
2021/06/20 06:30:01;;;;;;;3.83;2.97;;;21.80;99.90;;;;;;487976;243;28806;-72
2021/06/20 06:32:02;;;;;;;7.40;3.10;;;21.80;99.90;;;;;;488049;241;28840;-73
2021/06/20 06:34:03;;;;;;;3.23;2.80;;;21.80;99.90;;;;;;488049;241;28849;-71
2021/06/20 06:36:05;;;;;;;3.60;3.20;;;21.80;99.90;;;;;;488053;241;28857;-71
2021/06/20 06:38:06;;;;;;;3.50;2.60;;;21.90;99.90;;;;;;488079;241;28920;-72
2021/06/20 06:40:07;;;;;;;5.70;2.97;;;22.00;99.90;;;;;;488065;241;29287;-71
2021/06/20 06:42:08;;;;;;;5.77;3.30;;;21.90;99.90;;;;;;488039;241;29302;-72
2021/06/20 06:44:10;;;;;;;5.07;3.00;;;21.80;99.90;;;;;;488050;241;29263;-70
2021/06/20 06:46:11;;;;;;;4.50;3.20;;;21.80;99.90;;;;;;488021;241;29280;-72
2021/06/20 06:48:12;;;;;;;5.00;3.30;;;21.80;99.90;;;;;;488069;241;28848;-72
2021/06/20 06:50:13;;;;;;;4.90;3.50;;;21.80;99.90;;;;;;488073;241;28848;-72
2021/06/20 06:52:15;;;;;;;4.10;2.80;;;21.80;99.90;;;;;;486536;241;28844;-72
2021/06/20 06:54:17;;;;;;;3.80;3.03;;;21.80;99.90;;;;;;485231;243;28787;-70
2021/06/20 06:56:17;;;;;;;9.60;3.40;;;21.80;99.90;;;;;;488842;241;29146;-72
2021/06/20 06:58:19;;;;;;;10.50;3.53;;;21.80;99.90;;;;;;488888;243;28840;-71
2021/06/20 07:00:20;;;;;;;4.93;3.13;;;21.80;99.90;;;;;;488862;243;28763;-72
2021/06/20 07:02:24;;;;;;;5.67;2.90;;;21.90;99.90;;;;;;488918;243;28793;-72
2021/06/20 07:04:22;;;;;;;8.90;3.63;;;21.90;99.90;;;;;;488714;242;30189;-71
2021/06/20 07:06:24;;;;;;;3.23;2.93;;;22.00;99.90;;;;;;488909;243;29367;-72
2021/06/20 07:08:25;;;;;;;7.00;3.10;;;21.80;99.90;;;;;;488722;243;29242;-71
2021/06/20 07:10:26;;;;;;;3.93;2.87;;;21.90;99.90;;;;;;488854;243;29323;-71
2021/06/20 07:12:27;;;;;;;14.67;3.67;;;22.00;99.90;;;;;;488839;243;28868;-72
2021/06/20 07:14:29;;;;;;;5.60;3.40;;;22.00;99.90;;;;;;488870;243;28809;-71
2021/06/20 07:16:30;;;;;;;3.90;2.87;;;21.90;99.90;;;;;;488866;243;28778;-72
2021/06/20 07:18:31;;;;;;;4.30;3.00;;;21.90;99.90;;;;;;488907;243;28808;-72
2021/06/20 07:20:32;;;;;;;6.73;3.03;;;22.00;99.90;;;;;;488869;243;28847;-73
2021/06/20 07:22:34;;;;;;;6.80;3.37;;;21.90;99.90;;;;;;488888;243;28893;-71
2021/06/20 07:24:35;;;;;;;6.03;3.20;;;22.00;99.90;;;;;;488869;243;28784;-72
2021/06/20 07:26:36;;;;;;;3.90;3.40;;;22.10;99.90;;;;;;488878;243;28787;-72
2021/06/20 07:28:38;;;;;;;3.50;2.70;;;22.20;99.90;;;;;;488900;243;29300;-73
2021/06/20 07:30:39;;;;;;;3.70;2.60;;;22.40;99.90;;;;;;488851;243;29204;-71
2021/06/20 07:32:40;;;;;;;5.70;2.83;;;22.50;99.90;;;;;;488904;243;29259;-69
2021/06/20 07:34:41;;;;;;;5.10;3.50;;;22.60;99.90;;;;;;488846;243;28808;-71
2021/06/20 07:36:43;;;;;;;3.47;2.60;;;22.40;99.90;;;;;;488889;243;28773;-72
2021/06/20 07:38:44;;;;;;;3.00;2.67;;;22.30;99.90;;;;;;488855;243;28812;-72
2021/06/20 07:40:45;;;;;;;4.50;2.93;;;22.30;99.90;;;;;;488908;243;28761;-71
2021/06/20 07:42:46;;;;;;;6.00;3.10;;;22.50;99.90;;;;;;488892;243;28788;-73
2021/06/20 07:44:47;;;;;;;2.67;2.47;;;22.60;99.90;;;;;;488901;243;29092;-73
2021/06/20 07:46:49;;;;;;;5.10;2.77;;;22.60;99.90;;;;;;488892;243;28682;-72
2021/06/20 07:48:50;;;;;;;5.33;2.73;;;22.70;99.90;;;;;;488907;243;28879;-70
2021/06/20 07:50:51;;;;;;;6.10;2.90;;;22.70;99.90;;;;;;488823;243;28769;-71
2021/06/20 07:52:52;;;;;;;4.23;2.73;;;22.80;99.90;;;;;;488928;243;29358;-71
2021/06/20 07:54:54;;;;;;;4.93;2.90;;;22.80;99.90;;;;;;488667;243;29491;-73
2021/06/20 07:56:55;;;;;;;4.73;2.80;;;22.70;99.90;;;;;;488765;243;29213;-71
2021/06/20 07:58:57;;;;;;;3.30;2.70;;;22.90;99.90;;;;;;488887;243;28797;-72
2021/06/20 08:00:57;;;;;;;3.37;2.50;;;22.80;99.90;;;;;;488862;243;28866;-72
2021/06/20 08:02:59;;;;;;;2.87;2.67;;;22.90;99.90;;;;;;488863;243;28814;-71
2021/06/20 08:05:00;;;;;;;2.90;2.60;;;22.50;99.90;;;;;;488900;243;28718;-72
2021/06/20 08:07:01;;;;;;;4.53;2.80;;;22.50;99.90;;;;;;488928;243;28668;-72
2021/06/20 08:09:02;;;;;;;3.43;2.60;;;22.30;99.90;;;;;;489068;243;28816;-72
2021/06/20 08:11:04;;;;;;;9.03;2.70;;;22.20;99.90;;;;;;489961;242;28801;-72
2021/06/20 08:13:05;;;;;;;2.37;2.17;;;22.30;99.90;;;;;;489944;242;28819;-73
2021/06/20 08:15:06;;;;;;;2.73;2.47;;;22.50;99.90;;;;;;489942;242;28806;-72
2021/06/20 08:17:09;;;;;;;5.33;2.80;;;22.60;99.90;;;;;;489962;242;29200;-72
2021/06/20 08:19:09;;;;;;;4.80;2.67;;;22.70;99.90;;;;;;489858;242;29294;-72
2021/06/20 08:21:10;;;;;;;6.10;2.70;;;22.70;99.90;;;;;;489961;242;29237;-71
2021/06/20 08:23:11;;;;;;;3.80;2.57;;;22.80;99.90;;;;;;489936;242;29393;-73
2021/06/20 08:25:13;;;;;;;2.80;2.60;;;22.90;99.90;;;;;;489944;242;28795;-72
2021/06/20 08:27:14;;;;;;;7.10;2.97;;;23.00;99.90;;;;;;489967;242;28790;-72
2021/06/20 08:29:15;;;;;;;3.33;3.00;;;23.20;99.90;;;;;;489951;242;28791;-72
2021/06/20 08:31:16;;;;;;;3.17;2.50;;;23.30;99.90;;;;;;489937;242;28774;-72
2021/06/20 08:33:17;;;;;;;2.80;2.60;;;23.50;99.90;;;;;;489928;242;28815;-72
2021/06/20 08:35:19;;;;;;;3.33;2.30;;;23.50;99.90;;;;;;489997;242;28898;-72
2021/06/20 08:37:20;;;;;;;3.43;2.43;;;23.50;99.90;;;;;;489964;243;28809;-71
2021/06/20 08:39:21;;;;;;;6.07;2.70;;;23.50;99.90;;;;;;489965;242;28802;-72
2021/06/20 08:41:22;;;;;;;4.50;2.60;;;23.60;99.90;;;;;;490009;242;29302;-72
2021/06/20 08:43:24;;;;;;;3.20;2.20;;;23.70;99.90;;;;;;489962;242;29296;-71
2021/06/20 08:45:25;;;;;;;3.23;2.20;;;23.70;99.90;;;;;;489969;242;29999;-72
2021/06/20 08:47:26;;;;;;;3.83;2.03;;;23.60;99.90;;;;;;489986;242;29314;-72
2021/06/20 08:49:27;;;;;;;4.10;2.53;;;23.60;99.90;;;;;;489997;242;28801;-72
2021/06/20 08:51:29;;;;;;;7.20;2.87;;;23.60;99.90;;;;;;489956;242;28847;-71
2021/06/20 08:53:30;;;;;;;3.17;2.30;;;23.70;99.90;;;;;;489958;243;28835;-72
2021/06/20 08:55:31;;;;;;;2.47;2.30;;;23.80;99.90;;;;;;489934;242;29190;-71
2021/06/20 08:57:32;;;;;;;2.37;2.17;;;23.90;99.90;;;;;;489952;242;28786;-71
2021/06/20 08:59:34;;;;;;;4.50;2.80;;;23.80;99.90;;;;;;489942;242;28831;-71
2021/06/20 09:01:35;;;;;;;3.63;2.53;;;23.70;99.90;;;;;;489952;242;28834;-71
2021/06/20 09:03:36;;;;;;;3.93;2.40;;;23.50;99.90;;;;;;489940;242;28829;-72
2021/06/20 09:05:37;;;;;;;3.53;2.77;;;23.30;99.90;;;;;;489924;242;30234;-73
2021/06/20 09:07:39;;;;;;;4.83;3.10;;;23.30;99.90;;;;;;489972;242;29274;-71
2021/06/20 09:09:40;;;;;;;3.80;2.60;;;23.20;99.90;;;;;;489948;242;29383;-72
2021/06/20 09:11:42;;;;;;;5.13;2.50;;;23.20;99.90;;;;;;489926;242;29316;-71
2021/06/20 09:13:42;;;;;;;2.80;2.60;;;23.20;99.90;;;;;;489895;242;28813;-72
2021/06/20 09:15:44;;;;;;;2.80;2.50;;;23.20;99.90;;;;;;489914;242;28813;-71
2021/06/20 09:17:45;;;;;;;4.03;3.00;;;23.30;99.90;;;;;;489903;242;28770;-72
2021/06/20 09:19:46;;;;;;;2.83;2.50;;;23.40;99.90;;;;;;489925;242;28815;-71
2021/06/20 09:21:47;;;;;;;3.77;2.60;;;23.60;99.90;;;;;;489917;242;28770;-71
2021/06/20 09:23:49;;;;;;;4.33;2.70;;;23.70;99.90;;;;;;489884;242;28801;-72
2021/06/20 09:25:50;;;;;;;5.10;2.40;;;23.70;99.90;;;;;;489853;242;29271;-71
2021/06/20 09:27:51;;;;;;;3.70;2.93;;;23.80;99.90;;;;;;489922;242;28795;-72
2021/06/20 09:29:52;;;;;;;3.30;2.43;;;23.80;99.90;;;;;;489923;242;29344;-72
2021/06/20 09:31:54;;;;;;;3.03;2.50;;;23.90;99.90;;;;;;489922;242;29371;-71
2021/06/20 09:33:55;;;;;;;3.63;2.90;;;23.90;99.90;;;;;;489944;242;29351;-72
2021/06/20 09:35:57;;;;;;;6.27;2.80;;;24.00;99.90;;;;;;489932;242;29320;-71
2021/06/20 09:37:58;;;;;;;3.40;2.70;;;23.70;99.90;;;;;;489879;242;28799;-71
2021/06/20 09:39:59;;;;;;;8.37;3.27;;;23.70;99.90;;;;;;489928;242;28861;-73
2021/06/20 09:42:00;;;;;;;4.23;2.70;;;24.10;99.90;;;;;;489934;242;28762;-71
2021/06/20 09:44:01;;;;;;;4.53;2.73;;;23.90;99.90;;;;;;489939;242;28854;-72
2021/06/20 09:46:02;;;;;;;4.90;3.17;;;24.10;99.90;;;;;;489931;242;28868;-71
2021/06/20 09:48:04;;;;;;;6.03;2.73;;;24.30;99.90;;;;;;489943;242;28874;-71
2021/06/20 09:50:05;;;;;;;5.27;2.77;;;24.20;99.90;;;;;;489915;242;28831;-72
2021/06/20 09:52:07;;;;;;;4.73;2.67;;;24.30;99.90;;;;;;489909;242;28760;-71
2021/06/20 09:54:07;;;;;;;3.73;2.77;;;24.20;99.90;;;;;;489894;243;29215;-71
2021/06/20 09:56:09;;;;;;;3.70;2.60;;;24.30;99.90;;;;;;489919;242;29481;-72
2021/06/20 09:58:10;;;;;;;8.57;2.53;;;24.40;99.90;;;;;;489962;242;29222;-72
2021/06/20 10:00:11;;;;;;;4.47;2.70;;;24.50;99.90;;;;;;489956;242;29275;-72
2021/06/20 10:02:12;;;;;;;4.73;2.87;;;24.70;99.90;;;;;;489911;242;28767;-71
2021/06/20 10:04:14;;;;;;;8.20;2.83;;;24.80;99.90;;;;;;489956;242;28870;-72
2021/06/20 10:06:15;;;;;;;3.80;2.93;;;24.90;99.90;;;;;;489941;242;28872;-71
2021/06/20 10:08:16;;;;;;;3.17;2.87;;;24.90;99.90;;;;;;489893;242;28827;-71
2021/06/20 10:10:17;;;;;;;2.90;2.60;;;25.00;99.90;;;;;;489933;242;28801;-72
2021/06/20 10:12:19;;;;;;;3.47;2.80;;;24.90;99.90;;;;;;489949;242;28865;-71
2021/06/20 10:14:20;;;;;;;4.30;2.70;;;24.80;99.90;;;;;;489908;242;29368;-72
2021/06/20 10:16:21;;;;;;;4.80;2.67;;;24.80;99.90;;;;;;489942;242;29306;-71
2021/06/20 10:18:22;;;;;;;3.60;2.70;;;24.90;99.90;;;;;;489933;242;29254;-71
2021/06/20 10:20:24;;;;;;;5.80;2.70;;;25.00;99.90;;;;;;489920;242;28810;-72
2021/06/20 10:22:25;;;;;;;5.30;3.00;;;24.80;99.90;;;;;;489864;242;28757;-71
2021/06/20 10:24:26;;;;;;;5.50;2.60;;;24.60;99.90;;;;;;489916;242;28893;-71
2021/06/20 10:26:27;;;;;;;5.87;3.13;;;24.60;99.90;;;;;;489930;242;28751;-71
2021/06/20 10:28:29;;;;;;;6.87;3.10;;;24.50;99.90;;;;;;489928;242;28765;-70
2021/06/20 10:30:34;;;;;;;3.20;2.90;;;24.00;99.90;;;;;;489975;242;28815;-72
2021/06/20 10:32:31;;;;;;;3.40;2.97;;;24.00;99.90;;;;;;489685;243;28837;-71
2021/06/20 10:34:32;;;;;;;5.00;3.03;;;23.90;99.90;;;;;;489937;242;28791;-71
2021/06/20 10:36:34;;;;;;;4.43;2.90;;;23.80;99.90;;;;;;489898;242;28923;-71
2021/06/20 10:38:37;;;;;;;5.23;2.73;;;23.70;99.90;;;;;;489921;242;29311;-70
2021/06/20 10:40:36;;;;;;;4.40;3.20;;;23.80;99.90;;;;;;489777;243;29270;-70